Time;durP1;ratioP1;P1;durP2;ratioP2;P2;SDS_P1;SDS_P2;PMS_P1;PMS_P2;Temp;Humidity;BMP_temperature;BMP_pressure;BME280_temperature;BME280_humidity;BME280_pressure;Samples;Min_cycle;Max_cycle;Signal;HPM_P1;HPM_P2
2023/01/13 00:00:46;;;;;;;23.73;6.63;;;9.90;80.40;;;;;;5134950;27;20053;-77
2023/01/13 00:03:11;;;;;;;22.88;4.53;;;9.90;80.40;;;;;;5134510;27;20039;-77
2023/01/13 00:05:37;;;;;;;21.95;4.93;;;9.80;80.30;;;;;;5134652;27;20050;-77
2023/01/13 00:08:05;;;;;;;18.92;4.95;;;9.80;80.10;;;;;;5134535;27;20054;-77
2023/01/13 00:10:32;;;;;;;28.48;5.32;;;9.80;80.20;;;;;;5116654;27;20118;-73
2023/01/13 00:12:58;;;;;;;19.73;5.43;;;9.80;80.10;;;;;;5133841;27;20042;-73
2023/01/13 00:15:24;;;;;;;22.05;5.43;;;9.70;79.80;;;;;;5116603;27;20035;-73
2023/01/13 00:17:50;;;;;;;31.73;6.22;;;9.70;79.70;;;;;;5133757;27;20477;-73
2023/01/13 00:20:16;;;;;;;33.53;5.88;;;9.70;79.80;;;;;;5133778;27;20039;-73
2023/01/13 00:22:42;;;;;;;29.90;6.30;;;9.60;79.60;;;;;;5133762;27;20043;-72
2023/01/13 00:25:08;;;;;;;33.70;7.45;;;9.60;79.60;;;;;;5132997;27;20103;-73
2023/01/13 00:27:34;;;;;;;33.50;6.35;;;9.60;79.50;;;;;;5116450;27;20396;-78
2023/01/13 00:30:00;;;;;;;33.80;7.00;;;9.60;79.30;;;;;;5133682;27;20050;-74
2023/01/13 00:32:26;;;;;;;35.33;7.05;;;9.50;79.00;;;;;;5133197;27;20482;-74
2023/01/13 00:34:53;;;;;;;36.20;8.07;;;9.50;78.70;;;;;;5133202;27;20035;-74
2023/01/13 00:37:18;;;;;;;33.65;6.60;;;9.40;78.90;;;;;;5133432;27;20046;-71
2023/01/13 00:39:44;;;;;;;32.65;6.43;;;9.40;78.80;;;;;;5133224;27;20056;-72
2023/01/13 00:44:55;;;;;;;27.27;6.03;;;9.40;78.70;;;;;;5132864;27;20039;-72
2023/01/13 00:47:22;;;;;;;29.75;5.82;;;9.40;79.40;;;;;;5133145;27;20043;-72
2023/01/13 00:49:48;;;;;;;33.05;7.22;;;9.30;79.00;;;;;;5116228;27;20039;-72
2023/01/13 00:52:14;;;;;;;26.27;5.93;;;9.30;79.00;;;;;;5133112;27;20113;-72
2023/01/13 00:54:40;;;;;;;30.58;6.95;;;9.30;78.90;;;;;;5132915;27;20406;-72
2023/01/13 00:57:06;;;;;;;29.98;5.97;;;9.30;79.00;;;;;;5115897;27;20042;-72
2023/01/13 00:59:32;;;;;;;30.67;7.25;;;9.30;79.10;;;;;;5132735;27;20046;-73
2023/01/13 01:01:57;;;;;;;30.40;6.75;;;9.30;79.10;;;;;;5133100;27;20111;-72
2023/01/13 01:04:23;;;;;;;24.98;6.80;;;9.20;79.10;;;;;;5132603;27;20053;-72
2023/01/13 01:06:49;;;;;;;31.25;5.18;;;9.20;79.20;;;;;;5133068;27;20079;-72
2023/01/13 01:09:15;;;;;;;25.95;6.25;;;9.20;79.30;;;;;;5132611;27;20047;-72
2023/01/13 01:11:41;;;;;;;22.38;5.72;;;9.20;79.30;;;;;;5115745;27;20060;-72
2023/01/13 01:14:10;;;;;;;31.90;5.50;;;9.20;79.30;;;;;;5132419;27;20143;-72
2023/01/13 01:16:37;;;;;;;24.25;4.80;;;9.20;79.40;;;;;;5132516;27;20053;-72
2023/01/13 01:19:03;;;;;;;25.98;5.45;;;9.20;79.50;;;;;;5132744;27;20039;-72
2023/01/13 01:21:30;;;;;;;25.83;4.40;;;9.20;79.60;;;;;;5115557;27;20077;-72
2023/01/13 01:23:59;;;;;;;27.02;4.63;;;9.10;79.60;;;;;;5142801;27;20050;-72
2023/01/13 01:26:29;;;;;;;29.60;6.63;;;9.10;79.40;;;;;;5112535;27;20039;-72
2023/01/13 01:28:55;;;;;;;25.27;5.65;;;9.10;79.40;;;;;;5115106;28;20039;-73
2023/01/13 01:31:26;;;;;;;21.35;4.68;;;9.10;79.30;;;;;;5114429;27;20054;-72
2023/01/13 01:33:53;;;;;;;26.80;5.07;;;9.10;79.40;;;;;;5131769;27;20431;-72
2023/01/13 01:36:21;;;;;;;21.27;4.65;;;9.10;79.40;;;;;;5115178;28;20383;-73
2023/01/13 01:38:48;;;;;;;23.92;4.80;;;9.00;79.40;;;;;;5131327;27;20031;-72
2023/01/13 01:41:22;;;;;;;36.95;7.47;;;9.00;79.20;;;;;;5131931;27;20091;-72
2023/01/13 01:43:58;;;;;;;29.58;6.10;;;9.00;79.20;;;;;;5131881;27;20073;-73
2023/01/13 01:46:44;;;;;;;26.30;5.78;;;9.00;79.20;;;;;;5132355;28;20382;-72
2023/01/13 01:49:25;;;;;;;26.92;4.97;;;9.00;79.10;;;;;;5114138;27;20573;-73
2023/01/13 01:52:12;;;;;;;22.83;5.03;;;9.00;79.20;;;;;;5132408;28;20125;-72
2023/01/13 01:55:07;;;;;;;21.58;5.40;;;9.00;79.30;;;;;;5131666;27;20039;-73
2023/01/13 01:57:52;;;;;;;26.83;6.07;;;9.00;79.40;;;;;;5131810;27;20035;-73
2023/01/13 02:00:18;;;;;;;26.08;4.88;;;9.00;79.50;;;;;;5132035;28;20035;-73
2023/01/13 02:02:46;;;;;;;24.02;5.18;;;8.90;79.50;;;;;;5115012;28;20045;-73
2023/01/13 02:05:13;;;;;;;26.88;5.70;;;8.90;79.40;;;;;;5131555;28;20558;-73
2023/01/13 02:07:41;;;;;;;32.60;6.07;;;8.90;79.30;;;;;;5114491;28;20561;-73
2023/01/13 02:10:11;;;;;;;28.63;5.82;;;8.90;79.20;;;;;;5131807;27;20039;-73
2023/01/13 02:12:38;;;;;;;26.38;5.60;;;8.90;79.10;;;;;;5131724;27;20043;-73
2023/01/13 02:15:08;;;;;;;28.15;4.78;;;8.90;79.00;;;;;;5114602;28;20032;-73
2023/01/13 02:17:46;;;;;;;27.23;5.70;;;8.90;79.00;;;;;;5114991;28;20039;-73
2023/01/13 02:20:27;;;;;;;33.20;6.85;;;8.90;79.00;;;;;;5131705;27;20486;-73
2023/01/13 02:23:02;;;;;;;23.25;3.83;;;8.90;78.80;;;;;;5115076;28;20398;-73
2023/01/13 02:25:38;;;;;;;26.17;5.63;;;8.90;78.90;;;;;;5114410;28;20545;-73
2023/01/13 02:28:10;;;;;;;24.60;5.28;;;8.90;79.40;;;;;;5148944;27;20090;-74
2023/01/13 02:33:55;;;;;;;23.73;4.70;;;8.90;79.00;;;;;;5131882;28;20542;-73
2023/01/13 02:36:36;;;;;;;24.15;4.68;;;8.90;79.20;;;;;;5120442;28;20069;-73
2023/01/13 02:39:11;;;;;;;20.75;4.68;;;8.90;79.20;;;;;;5131823;27;20042;-73
2023/01/13 02:44:27;;;;;;;23.67;4.90;;;8.90;79.40;;;;;;5131495;27;20151;-73
2023/01/13 02:47:00;;;;;;;22.67;4.70;;;8.90;79.20;;;;;;5131372;27;20049;-74
2023/01/13 02:49:36;;;;;;;23.55;4.20;;;8.90;79.40;;;;;;5133112;27;20046;-74
2023/01/13 02:52:31;;;;;;;28.25;4.95;;;8.80;79.40;;;;;;5118540;27;20039;-73
2023/01/13 02:55:09;;;;;;;25.77;5.20;;;8.80;79.50;;;;;;5107266;27;20050;-74
2023/01/13 02:57:36;;;;;;;28.08;5.43;;;8.90;79.70;;;;;;5135337;27;20390;-74
2023/01/13 03:00:05;;;;;;;33.75;5.75;;;8.90;79.90;;;;;;5135011;27;20072;-73
2023/01/13 03:02:31;;;;;;;26.85;6.30;;;8.80;79.70;;;;;;5135465;27;20371;-73
2023/01/13 03:04:59;;;;;;;28.75;5.47;;;8.90;79.80;;;;;;5135247;27;20075;-73
2023/01/13 03:07:39;;;;;;;32.00;5.93;;;8.90;80.00;;;;;;5135011;27;20130;-73
2023/01/13 03:10:17;;;;;;;30.67;5.25;;;8.90;80.10;;;;;;5126592;27;20043;-73
2023/01/13 03:13:18;;;;;;;31.20;5.20;;;8.90;80.10;;;;;;5117968;27;20072;-74
2023/01/13 03:15:56;;;;;;;31.83;6.93;;;8.80;80.10;;;;;;5117517;27;20096;-76
2023/01/13 03:18:47;;;;;;;23.45;5.22;;;8.80;80.40;;;;;;5118349;27;20108;-78
2023/01/13 03:21:23;;;;;;;33.53;6.28;;;8.80;80.40;;;;;;5131783;27;20039;-78
2023/01/13 03:24:12;;;;;;;29.25;6.10;;;8.90;80.60;;;;;;5135607;27;20402;-77
2023/01/13 03:26:56;;;;;;;34.05;6.28;;;8.90;80.60;;;;;;5117767;27;20047;-78
2023/01/13 03:29:45;;;;;;;33.72;5.60;;;8.80;80.70;;;;;;5134989;27;20047;-78
2023/01/13 03:32:22;;;;;;;27.05;6.13;;;8.90;80.80;;;;;;5134959;27;20043;-78
2023/01/13 03:34:55;;;;;;;29.88;6.15;;;8.90;80.90;;;;;;5134971;27;20035;-78
2023/01/13 03:37:29;;;;;;;27.45;5.82;;;8.90;80.90;;;;;;5135106;27;20553;-78
2023/01/13 03:39:59;;;;;;;31.70;5.82;;;8.90;80.90;;;;;;5135271;27;20046;-77
2023/01/13 03:42:29;;;;;;;34.67;7.15;;;8.90;81.00;;;;;;5135401;27;20098;-78
2023/01/13 03:45:08;;;;;;;25.75;5.57;;;8.80;80.90;;;;;;5134828;27;20110;-78
2023/01/13 03:47:53;;;;;;;31.23;5.97;;;8.80;80.80;;;;;;5134880;27;20039;-78
2023/01/13 03:50:25;;;;;;;23.70;5.38;;;8.90;80.80;;;;;;5135018;27;20041;-78
2023/01/13 03:52:54;;;;;;;21.10;4.82;;;8.80;80.90;;;;;;5134874;27;20035;-78
2023/01/13 03:55:25;;;;;;;33.03;5.75;;;8.80;80.90;;;;;;5134764;27;20035;-78
2023/01/13 03:58:20;;;;;;;29.65;6.82;;;8.80;80.90;;;;;;5134659;27;20122;-78
2023/01/13 04:00:49;;;;;;;;;;;8.80;80.60;;;;;;5126065;27;20489;-78
2023/01/13 04:03:38;;;;;;;22.38;4.80;;;8.80;80.70;;;;;;5135008;27;19937;-78
2023/01/13 04:06:28;;;;;;;32.08;6.15;;;8.80;80.90;;;;;;5117659;27;20436;-78
2023/01/13 04:09:02;;;;;;;35.60;6.82;;;8.80;80.80;;;;;;5117545;27;20130;-78
2023/01/13 04:11:54;;;;;;;35.10;5.93;;;8.80;80.90;;;;;;5117703;27;20078;-78
2023/01/13 04:14:22;;;;;;;32.80;5.40;;;8.80;80.70;;;;;;5117764;27;20114;-78
2023/01/13 04:16:48;;;;;;;23.77;5.47;;;8.80;80.90;;;;;;5121104;27;20043;-78
2023/01/13 04:19:14;;;;;;;26.73;5.82;;;8.80;80.90;;;;;;5136282;27;20039;-78
2023/01/13 04:21:39;;;;;;;30.48;6.10;;;8.80;80.80;;;;;;5117518;27;20092;-78
2023/01/13 04:24:07;;;;;;;30.23;6.32;;;8.80;80.80;;;;;;5134323;27;20035;-78
2023/01/13 04:26:33;;;;;;;27.05;5.80;;;8.80;80.70;;;;;;5134383;27;20074;-78
2023/01/13 04:28:58;;;;;;;30.77;6.85;;;8.80;80.70;;;;;;5133724;27;20089;-78
2023/01/13 04:31:24;;;;;;;25.40;5.45;;;8.80;80.70;;;;;;5116719;27;20406;-78
2023/01/13 04:33:50;;;;;;;23.77;5.45;;;8.80;80.70;;;;;;5116965;27;20106;-78
2023/01/13 04:36:15;;;;;;;29.25;5.20;;;8.80;80.70;;;;;;5116954;27;20039;-78
2023/01/13 04:38:41;;;;;;;34.25;6.55;;;8.80;80.60;;;;;;5151467;27;20050;-78
2023/01/13 04:41:07;;;;;;;30.15;5.47;;;8.70;80.60;;;;;;5116916;27;20042;-78
2023/01/13 04:43:32;;;;;;;26.90;5.38;;;8.70;80.60;;;;;;5133835;27;20047;-78
2023/01/13 04:45:58;;;;;;;32.35;6.80;;;8.70;80.60;;;;;;5133927;27;20092;-78
2023/01/13 04:48:23;;;;;;;31.50;6.85;;;8.70;80.60;;;;;;5116368;27;20046;-78
2023/01/13 04:50:49;;;;;;;30.80;6.40;;;8.70;80.60;;;;;;5133657;27;20042;-78
2023/01/13 04:53:15;;;;;;;31.55;5.72;;;8.70;80.70;;;;;;5133695;27;20041;-78
2023/01/13 04:55:40;;;;;;;31.50;6.45;;;8.70;80.70;;;;;;5099652;27;20118;-78
2023/01/13 04:58:09;;;;;;;22.83;6.25;;;8.70;80.70;;;;;;5116350;27;20064;-78
2023/01/13 05:00:35;;;;;;;26.55;5.28;;;8.70;80.60;;;;;;5133510;27;20122;-78
2023/01/13 05:03:02;;;;;;;32.00;6.78;;;8.70;80.60;;;;;;5116524;27;20046;-78
2023/01/13 05:05:28;;;;;;;31.50;6.70;;;8.70;80.60;;;;;;5133446;27;20082;-78
2023/01/13 05:07:54;;;;;;;32.72;6.50;;;8.70;80.60;;;;;;5133325;27;20035;-78
2023/01/13 05:10:20;;;;;;;30.65;6.95;;;8.70;80.60;;;;;;5116235;27;20091;-78
2023/01/13 05:18:16;;;;;;;25.67;5.50;;;8.70;80.40;;;;;;5133596;27;20050;-78
2023/01/13 05:20:42;;;;;;;27.40;4.28;;;8.60;80.20;;;;;;5099113;27;20043;-78
2023/01/13 05:25:51;;;;;;;26.42;5.80;;;8.70;80.20;;;;;;5133414;27;20061;-78
2023/01/13 05:28:17;;;;;;;27.27;6.22;;;8.60;80.20;;;;;;5115852;27;20039;-78
2023/01/13 05:30:45;;;;;;;19.80;5.40;;;8.70;80.20;;;;;;5115641;27;20108;-78
2023/01/13 05:33:17;;;;;;;26.20;4.57;;;8.70;80.20;;;;;;5132966;27;20043;-78
2023/01/13 05:35:45;;;;;;;21.20;5.78;;;8.70;79.90;;;;;;5133041;27;20505;-78
2023/01/13 05:38:12;;;;;;;22.52;4.57;;;8.70;80.00;;;;;;5115525;28;20041;-78
2023/01/13 05:43:23;;;;;;;25.80;6.25;;;8.60;79.90;;;;;;5132664;27;20049;-78
2023/01/13 05:45:55;;;;;;;20.25;3.80;;;8.60;79.90;;;;;;5132480;28;20562;-78
2023/01/13 05:48:24;;;;;;;23.17;4.55;;;8.60;79.90;;;;;;5132690;28;20099;-78
2023/01/13 05:50:50;;;;;;;18.40;4.13;;;8.60;79.90;;;;;;5132865;28;20049;-79
2023/01/13 05:53:17;;;;;;;17.67;3.92;;;8.60;79.90;;;;;;5115749;28;20126;-74
2023/01/13 05:55:44;;;;;;;21.38;4.28;;;8.60;79.80;;;;;;5132141;28;20027;-74
2023/01/13 05:58:11;;;;;;;25.60;4.57;;;8.60;79.90;;;;;;5131784;28;20050;-75
2023/01/13 06:00:37;;;;;;;21.52;3.92;;;8.60;79.90;;;;;;5132035;28;20031;-74
2023/01/13 06:03:04;;;;;;;22.15;4.07;;;8.60;79.90;;;;;;5115130;27;20081;-74
2023/01/13 06:05:30;;;;;;;20.80;4.13;;;8.60;80.00;;;;;;5114940;28;20039;-74
2023/01/13 06:07:57;;;;;;;22.85;3.78;;;8.60;80.10;;;;;;5115199;28;20482;-75
2023/01/13 06:10:23;;;;;;;16.70;3.60;;;8.60;80.20;;;;;;5131922;27;20040;-74
2023/01/13 06:12:49;;;;;;;20.52;4.75;;;8.60;80.30;;;;;;5132145;27;20043;-75
2023/01/13 06:15:15;;;;;;;18.60;3.90;;;8.60;80.30;;;;;;5115333;28;20047;-74
2023/01/13 06:17:41;;;;;;;17.60;4.00;;;8.60;80.30;;;;;;5131029;27;20489;-74
2023/01/13 06:20:08;;;;;;;20.27;3.50;;;8.60;80.20;;;;;;5114642;28;20542;-75
2023/01/13 06:22:38;;;;;;;19.88;4.63;;;8.60;80.30;;;;;;5114772;28;20050;-74
2023/01/13 06:25:13;;;;;;;14.38;3.35;;;8.60;80.20;;;;;;5133626;27;20047;-74
2023/01/13 06:27:39;;;;;;;15.30;3.40;;;8.70;80.10;;;;;;5135628;27;20126;-74
2023/01/13 06:30:05;;;;;;;18.92;3.53;;;8.70;80.00;;;;;;5135295;27;20170;-74
2023/01/13 06:32:38;;;;;;;13.93;3.38;;;8.70;79.90;;;;;;5118413;27;20031;-74
2023/01/13 06:35:08;;;;;;;15.15;3.25;;;8.70;79.80;;;;;;5135257;27;20035;-73
2023/01/13 06:37:35;;;;;;;15.88;3.90;;;8.70;79.80;;;;;;5136107;27;20039;-73
2023/01/13 06:40:04;;;;;;;12.57;2.70;;;8.70;79.80;;;;;;5135005;27;20078;-74
2023/01/13 06:45:18;;;;;;;21.50;3.95;;;8.70;79.60;;;;;;5136733;27;20082;-74
2023/01/13 06:47:44;;;;;;;23.52;4.57;;;8.70;79.40;;;;;;5118382;27;20070;-74
2023/01/13 06:50:10;;;;;;;14.15;3.85;;;8.70;79.20;;;;;;5135496;27;20043;-74
2023/01/13 06:52:35;;;;;;;14.80;4.05;;;8.70;79.10;;;;;;5134937;27;20446;-74
2023/01/13 06:55:01;;;;;;;17.33;3.58;;;8.70;79.00;;;;;;5116999;27;20033;-75
2023/01/13 06:57:27;;;;;;;17.98;2.95;;;8.70;79.00;;;;;;5118088;27;20043;-74
2023/01/13 06:59:53;;;;;;;18.20;3.17;;;8.70;79.00;;;;;;5118120;27;20046;-73
2023/01/13 07:02:18;;;;;;;17.33;3.25;;;8.70;79.10;;;;;;5134436;27;20069;-74
2023/01/13 07:04:45;;;;;;;16.05;4.15;;;8.80;79.10;;;;;;5134677;27;20035;-74
2023/01/13 07:07:11;;;;;;;16.50;3.60;;;8.70;78.80;;;;;;5117798;27;20039;-74
2023/01/13 07:09:38;;;;;;;15.60;3.85;;;8.80;78.90;;;;;;5134950;27;20039;-74
2023/01/13 07:12:04;;;;;;;16.13;3.33;;;8.80;79.10;;;;;;5134372;27;20047;-74
2023/01/13 07:17:14;;;;;;;23.27;3.72;;;8.80;79.30;;;;;;5135039;27;20079;-73
2023/01/13 07:19:39;;;;;;;16.52;4.05;;;8.70;79.40;;;;;;5117832;27;20078;-74
2023/01/13 07:22:05;;;;;;;16.98;3.75;;;8.80;79.70;;;;;;5118104;27;20047;-74
2023/01/13 07:24:30;;;;;;;20.65;4.35;;;8.70;79.70;;;;;;5117736;27;20147;-74
2023/01/13 07:26:56;;;;;;;19.08;3.42;;;8.70;79.80;;;;;;5134995;27;20084;-74
2023/01/13 07:29:22;;;;;;;16.23;3.22;;;8.70;79.90;;;;;;5134656;27;20047;-74
2023/01/13 07:31:48;;;;;;;19.45;3.90;;;8.70;80.10;;;;;;5134729;27;20127;-74
2023/01/13 07:34:13;;;;;;;17.63;4.22;;;8.70;80.30;;;;;;5117640;27;20035;-74
2023/01/13 07:36:39;;;;;;;18.23;3.80;;;8.70;80.50;;;;;;5116747;27;20074;-74
2023/01/13 07:39:05;;;;;;;23.20;4.82;;;8.70;80.60;;;;;;5151868;27;20494;-74
2023/01/13 07:44:14;;;;;;;25.20;4.50;;;8.70;80.80;;;;;;5120226;27;20047;-74
2023/01/13 07:46:41;;;;;;;22.65;3.92;;;8.60;80.90;;;;;;5117296;27;20442;-74
2023/01/13 07:49:07;;;;;;;18.75;4.15;;;8.60;81.00;;;;;;5117535;27;20039;-74
2023/01/13 07:51:38;;;;;;;15.48;3.83;;;8.60;81.10;;;;;;5134377;27;20640;-74
2023/01/13 07:54:04;;;;;;;21.58;4.90;;;8.60;81.20;;;;;;5117360;27;20049;-74
2023/01/13 07:56:30;;;;;;;23.10;4.15;;;8.60;81.30;;;;;;5151570;27;20103;-74
2023/01/13 07:58:58;;;;;;;22.90;3.75;;;8.60;81.40;;;;;;5100090;27;20035;-74
2023/01/13 08:01:26;;;;;;;24.23;4.75;;;8.70;81.50;;;;;;5100417;27;20039;-74
2023/01/13 08:03:52;;;;;;;18.52;4.55;;;8.60;81.50;;;;;;5134445;27;20042;-79
2023/01/13 08:06:18;;;;;;;24.25;4.43;;;8.60;81.60;;;;;;5134416;27;20047;-78
2023/01/13 08:08:43;;;;;;;22.70;4.22;;;8.60;81.70;;;;;;5134340;27;20042;-78
2023/01/13 08:11:09;;;;;;;20.42;4.55;;;8.60;81.80;;;;;;5117177;27;20035;-78
2023/01/13 08:13:35;;;;;;;24.92;3.92;;;8.60;81.80;;;;;;5134272;27;20095;-78
2023/01/13 08:16:05;;;;;;;21.70;4.30;;;8.60;81.90;;;;;;5134543;27;20047;-78
2023/01/13 08:18:32;;;;;;;27.75;3.80;;;8.50;81.90;;;;;;5151463;27;20046;-78
2023/01/13 08:21:02;;;;;;;24.55;5.05;;;8.60;82.00;;;;;;5134395;27;20131;-78
2023/01/13 08:23:30;;;;;;;25.50;4.65;;;8.50;82.10;;;;;;5134165;27;20409;-78
2023/01/13 08:26:05;;;;;;;25.67;5.25;;;8.60;82.20;;;;;;5117549;27;20180;-78
2023/01/13 08:28:31;;;;;;;19.63;4.53;;;8.60;82.30;;;;;;5116595;27;20146;-78
2023/01/13 08:31:06;;;;;;;21.77;4.45;;;8.60;82.20;;;;;;5116781;27;20055;-78
2023/01/13 08:33:32;;;;;;;;;;;8.60;82.20;;;;;;5116926;27;20126;-74
2023/01/13 08:36:01;;;;;;;19.23;4.63;;;8.50;81.90;;;;;;5116954;27;20031;-78
2023/01/13 08:38:26;;;;;;;22.55;4.57;;;8.50;82.20;;;;;;5133851;27;20047;-78
2023/01/13 08:40:52;;;;;;;23.23;4.35;;;8.50;82.10;;;;;;5133895;27;20046;-78
2023/01/13 08:43:18;;;;;;;22.35;4.47;;;8.50;82.00;;;;;;5116797;27;20038;-78
2023/01/13 08:45:44;;;;;;;20.75;4.35;;;8.50;81.90;;;;;;5133988;27;20402;-74
2023/01/13 08:48:09;;;;;;;22.35;4.65;;;8.50;81.90;;;;;;5115798;27;20039;-74
2023/01/13 08:50:35;;;;;;;23.38;4.90;;;8.60;81.80;;;;;;5116501;27;20031;-74
2023/01/13 08:53:01;;;;;;;18.85;4.18;;;8.50;81.70;;;;;;5133224;27;20031;-74
2023/01/13 08:55:27;;;;;;;21.45;5.07;;;8.50;81.70;;;;;;5116198;27;20057;-74
2023/01/13 08:57:52;;;;;;;21.23;4.05;;;8.60;81.70;;;;;;5116066;27;20043;-74
2023/01/13 09:00:18;;;;;;;18.95;3.47;;;8.60;81.70;;;;;;5132874;27;20080;-74
2023/01/13 09:02:44;;;;;;;22.42;5.50;;;8.60;81.60;;;;;;5133325;27;20394;-74
2023/01/13 09:05:10;;;;;;;19.80;3.60;;;8.60;81.40;;;;;;5116590;27;20043;-74
2023/01/13 09:07:37;;;;;;;19.30;4.10;;;8.60;81.30;;;;;;5132830;27;20550;-74
2023/01/13 09:10:06;;;;;;;17.88;3.85;;;8.60;81.40;;;;;;5115883;27;20043;-74
2023/01/13 09:15:18;;;;;;;21.10;5.05;;;8.60;81.30;;;;;;5135723;27;20486;-77
2023/01/13 09:17:44;;;;;;;31.30;5.30;;;8.70;81.30;;;;;;5133448;27;20043;-78
2023/01/13 09:20:11;;;;;;;22.70;4.68;;;8.70;81.40;;;;;;5116291;27;20191;-78
2023/01/13 09:22:39;;;;;;;21.90;4.88;;;8.70;81.40;;;;;;5133144;27;20046;-78
2023/01/13 09:25:05;;;;;;;19.40;4.30;;;8.70;81.40;;;;;;5115758;27;20043;-74
2023/01/13 09:27:31;;;;;;;25.58;5.10;;;8.70;81.40;;;;;;5115500;27;20071;-78
2023/01/13 09:29:56;;;;;;;21.40;4.82;;;8.70;81.40;;;;;;5115690;27;20131;-78
2023/01/13 09:32:22;;;;;;;23.63;5.82;;;8.70;81.50;;;;;;5133049;27;20338;-78
2023/01/13 09:35:00;;;;;;;23.35;3.85;;;8.70;81.50;;;;;;5099028;28;20043;-78
2023/01/13 09:37:32;;;;;;;24.05;4.85;;;8.70;81.40;;;;;;5150035;27;20046;-74
2023/01/13 09:39:59;;;;;;;22.73;4.18;;;8.80;81.50;;;;;;5132473;27;20176;-74
2023/01/13 09:45:49;;;;;;;25.40;5.05;;;8.80;81.40;;;;;;5132811;27;20065;-73
2023/01/13 09:48:17;;;;;;;21.27;4.53;;;8.80;81.50;;;;;;5115069;27;20504;-74
2023/01/13 09:50:59;;;;;;;21.40;4.15;;;8.80;81.50;;;;;;5132655;27;20351;-74
2023/01/13 09:53:29;;;;;;;25.33;4.75;;;8.80;81.50;;;;;;5132292;27;20035;-74
2023/01/13 09:55:55;;;;;;;23.27;4.75;;;8.80;81.60;;;;;;5132358;28;20122;-74
2023/01/13 09:58:21;;;;;;;18.20;3.85;;;8.80;81.50;;;;;;5132332;27;20050;-74
2023/01/13 10:01:06;;;;;;;18.92;4.05;;;8.80;81.40;;;;;;5136399;27;20386;-73
2023/01/13 10:03:34;;;;;;;13.13;3.03;;;8.80;81.30;;;;;;5122342;27;20091;-74
2023/01/13 10:06:05;;;;;;;24.58;4.65;;;8.80;81.50;;;;;;5136453;27;20506;-74
2023/01/13 10:08:42;;;;;;;26.48;4.72;;;8.80;81.50;;;;;;5136408;27;20103;-75
2023/01/13 10:14:21;;;;;;;26.92;5.18;;;8.80;81.40;;;;;;5098320;27;20554;-74
2023/01/13 10:17:20;;;;;;;21.05;4.45;;;8.90;81.30;;;;;;5136530;27;20091;-74
2023/01/13 10:19:58;;;;;;;20.88;3.88;;;8.90;81.30;;;;;;5136259;27;20070;-74
2023/01/13 10:22:49;;;;;;;15.18;4.32;;;8.80;81.30;;;;;;5136403;27;20039;-73
2023/01/13 10:25:26;;;;;;;23.95;4.57;;;8.90;81.30;;;;;;5136483;27;20394;-74
2023/01/13 10:27:55;;;;;;;17.63;3.60;;;8.90;81.40;;;;;;5135922;27;20039;-74
2023/01/13 10:30:30;;;;;;;21.50;3.78;;;8.90;81.40;;;;;;5118562;27;20055;-74
2023/01/13 10:33:05;;;;;;;19.52;4.18;;;8.90;81.30;;;;;;5153745;27;20031;-74
2023/01/13 10:35:58;;;;;;;19.45;3.47;;;8.90;81.30;;;;;;5136055;27;20121;-74
2023/01/13 10:38:35;;;;;;;23.95;4.57;;;8.90;81.00;;;;;;5135836;27;20054;-74
2023/01/13 10:41:17;;;;;;;25.05;3.90;;;8.90;81.00;;;;;;5135817;27;20390;-74
2023/01/13 10:43:47;;;;;;;21.40;4.75;;;8.90;81.10;;;;;;5118875;27;20122;-74
2023/01/13 10:46:15;;;;;;;22.25;3.20;;;8.90;80.90;;;;;;5118886;27;20518;-74
2023/01/13 10:48:58;;;;;;;19.20;3.75;;;8.90;80.90;;;;;;5118563;27;20115;-74
2023/01/13 10:51:25;;;;;;;16.92;3.75;;;9.00;80.90;;;;;;5135653;27;20038;-74
2023/01/13 10:54:13;;;;;;;19.08;4.13;;;9.00;80.80;;;;;;5118714;27;20151;-74
2023/01/13 10:56:41;;;;;;;21.70;3.60;;;9.00;80.80;;;;;;5111331;27;20043;-79
2023/01/13 10:59:14;;;;;;;14.32;3.10;;;9.00;80.60;;;;;;5136015;27;20047;-79
2023/01/13 11:01:53;;;;;;;17.60;4.53;;;9.00;80.50;;;;;;5135747;27;20046;-79
2023/01/13 11:04:28;;;;;;;16.42;3.70;;;9.10;80.40;;;;;;5135636;27;20043;-74
2023/01/13 11:06:53;;;;;;;;;;;9.10;80.10;;;;;;5135737;27;20054;-78
2023/01/13 11:09:21;;;;;;;21.13;4.10;;;9.10;80.10;;;;;;5101485;27;19915;-78
2023/01/13 11:11:54;;;;;;;20.25;4.90;;;9.10;80.10;;;;;;5135614;27;20505;-78
2023/01/13 11:14:40;;;;;;;15.07;3.60;;;9.10;79.90;;;;;;5135262;27;20054;-74
2023/01/13 11:17:28;;;;;;;13.68;3.33;;;9.10;79.80;;;;;;5117993;27;20043;-74
2023/01/13 11:19:59;;;;;;;20.73;4.38;;;9.10;79.90;;;;;;5118107;27;20558;-79
2023/01/13 11:22:34;;;;;;;17.77;3.63;;;9.20;79.90;;;;;;5135191;27;20144;-73
2023/01/13 11:25:07;;;;;;;14.27;3.47;;;9.10;79.80;;;;;;5118152;27;20184;-73
2023/01/13 11:27:46;;;;;;;15.00;3.55;;;9.20;79.90;;;;;;5118024;27;20497;-78
2023/01/13 11:30:37;;;;;;;18.80;3.88;;;9.20;80.10;;;;;;5152120;27;20458;-78
2023/01/13 11:33:08;;;;;;;16.85;4.03;;;9.20;80.10;;;;;;5134975;27;20478;-78
2023/01/13 11:35:40;;;;;;;19.83;4.45;;;9.20;80.20;;;;;;5135265;27;20035;-78
2023/01/13 11:38:28;;;;;;;15.00;3.97;;;9.20;80.20;;;;;;5135437;27;20348;-74
2023/01/13 11:41:07;;;;;;;24.05;4.43;;;9.20;80.10;;;;;;5135062;27;20424;-78
2023/01/13 11:44:06;;;;;;;17.98;3.08;;;9.20;80.20;;;;;;5117714;27;20039;-78
2023/01/13 11:46:32;;;;;;;20.13;3.70;;;9.20;79.90;;;;;;5129631;27;20547;-78
2023/01/13 11:48:59;;;;;;;13.95;3.63;;;9.20;80.10;;;;;;5117778;27;20043;-78
2023/01/13 11:51:51;;;;;;;17.80;4.03;;;9.20;80.00;;;;;;5135060;27;20073;-78
2023/01/13 11:54:38;;;;;;;17.55;3.95;;;9.20;79.70;;;;;;5134811;27;20470;-78
2023/01/13 11:57:43;;;;;;;16.88;3.05;;;9.20;79.90;;;;;;5134852;27;20047;-78
2023/01/13 12:00:15;;;;;;;14.63;2.87;;;9.20;79.50;;;;;;5134449;27;20041;-74
2023/01/13 12:02:49;;;;;;;15.73;3.33;;;9.20;79.50;;;;;;5134233;27;20364;-74
2023/01/13 12:05:26;;;;;;;11.30;3.15;;;9.20;79.20;;;;;;5117449;27;20125;-74
2023/01/13 12:07:52;;;;;;;16.27;3.45;;;9.30;79.40;;;;;;5134050;27;20046;-73
2023/01/13 12:10:39;;;;;;;13.38;3.50;;;9.30;79.30;;;;;;5134068;27;20055;-74
2023/01/13 12:13:11;;;;;;;15.88;2.92;;;9.30;79.20;;;;;;5133936;27;20050;-73
2023/01/13 12:15:39;;;;;;;21.27;3.00;;;9.30;79.10;;;;;;5134275;27;20039;-78
2023/01/13 12:18:30;;;;;;;18.35;4.13;;;9.30;79.20;;;;;;5117071;27;20112;-79
2023/01/13 12:21:12;;;;;;;14.52;3.25;;;9.30;78.70;;;;;;5134370;27;20043;-78
2023/01/13 12:23:50;;;;;;;15.70;4.03;;;9.30;78.90;;;;;;5116793;27;20047;-78
2023/01/13 12:26:16;;;;;;;16.73;4.07;;;9.30;78.80;;;;;;5117175;27;20065;-78
2023/01/13 12:28:48;;;;;;;12.10;3.15;;;9.40;78.80;;;;;;5133687;27;20497;-78
2023/01/13 12:31:17;;;;;;;15.80;3.80;;;9.40;78.60;;;;;;5116595;27;20079;-78
2023/01/13 12:33:46;;;;;;;22.40;3.78;;;9.30;78.40;;;;;;5133659;27;20046;-79
2023/01/13 12:36:30;;;;;;;17.98;3.33;;;9.40;78.20;;;;;;5133798;27;20070;-79
2023/01/13 12:38:58;;;;;;;14.88;2.45;;;9.40;78.00;;;;;;5133612;27;20072;-80
2023/01/13 12:41:28;;;;;;;13.15;3.55;;;9.40;78.20;;;;;;5133902;27;20556;-79
2023/01/13 12:46:44;;;;;;;15.85;3.67;;;9.40;78.10;;;;;;5133252;27;20054;-75
2023/01/13 12:49:33;;;;;;;13.68;2.95;;;9.40;78.00;;;;;;5116306;27;20027;-74
2023/01/13 12:52:05;;;;;;;12.00;2.25;;;9.40;77.80;;;;;;5133296;27;20046;-75
2023/01/13 12:54:40;;;;;;;14.30;2.50;;;9.40;77.90;;;;;;5133521;27;20469;-75
2023/01/13 12:57:18;;;;;;;16.88;3.28;;;9.40;77.60;;;;;;5115999;27;20042;-75
2023/01/13 13:00:04;;;;;;;14.95;3.00;;;9.40;77.70;;;;;;5115987;27;20122;-75
2023/01/13 13:02:42;;;;;;;12.90;3.25;;;9.40;77.70;;;;;;5133266;27;20074;-75
2023/01/13 13:05:14;;;;;;;9.98;2.67;;;9.40;77.40;;;;;;5133180;27;20259;-75
2023/01/13 13:07:50;;;;;;;14.32;2.75;;;9.40;77.50;;;;;;5115967;27;20476;-75
2023/01/13 13:10:32;;;;;;;11.68;2.55;;;9.40;77.40;;;;;;5133153;27;20374;-75
2023/01/13 13:13:19;;;;;;;16.95;3.00;;;9.40;77.50;;;;;;5132876;27;20046;-75
2023/01/13 13:15:47;;;;;;;15.40;2.97;;;9.40;77.50;;;;;;5115677;27;20045;-75
2023/01/13 13:18:24;;;;;;;12.65;2.63;;;9.40;77.60;;;;;;5133050;27;20043;-74
2023/01/13 13:20:55;;;;;;;8.95;2.88;;;9.40;77.60;;;;;;5116041;27;20074;-79
2023/01/13 13:23:36;;;;;;;11.65;2.78;;;9.40;77.60;;;;;;5132860;27;20043;-75
2023/01/13 13:26:10;;;;;;;9.93;2.33;;;9.40;77.20;;;;;;5133104;27;20531;-74
2023/01/13 13:28:40;;;;;;;12.88;2.92;;;9.40;77.30;;;;;;5132633;27;20080;-75
2023/01/13 13:31:23;;;;;;;13.80;2.72;;;9.40;77.30;;;;;;5115612;27;20059;-74
2023/01/13 13:34:01;;;;;;;9.65;2.40;;;9.50;77.30;;;;;;5131633;27;20050;-75
2023/01/13 13:36:36;;;;;;;10.00;2.33;;;9.40;77.30;;;;;;5150106;27;20185;-75
2023/01/13 13:47:59;;;;;;;10.98;2.35;;;9.40;77.30;;;;;;5132250;27;20047;-74
2023/01/13 13:50:27;;;;;;;11.80;1.98;;;9.40;77.30;;;;;;5132487;28;20043;-75
2023/01/13 13:53:04;;;;;;;8.55;2.45;;;9.50;77.60;;;;;;5115584;28;20104;-75
2023/01/13 13:55:30;;;;;;;15.85;4.05;;;9.40;76.90;;;;;;5132407;27;20039;-74
2023/01/13 13:57:57;;;;;;;12.25;2.75;;;9.40;77.00;;;;;;5115348;28;20039;-75